Latest Weather Observations for Moree

IDN60801

Issued at 8:53 pm EST Sunday 3 July 2022 (issued every 10 minutes, with the page automatically refreshed every 10 minutes)

About weather observations | Map of weather stations | Latest weather observations for NSW | Other Formats
Station Details ID: 053115 Name: MOREE AERO Lat: -29.49 Lon: 149.85 Height: 213.0 m
Data from the previous 72 hours. | See also: Recent months at Moree
Date/Time
EST
Temp
°C
App
Temp
°C
Dew
Point
°C
Rel
Hum
%
Delta-T
°C
Wind Press
QNH
hPa
Press
MSL
hPa
Rain since
9am
mm
Dir  Spd
km/h
Gust
km/h
Spd
kts
Gust
kts
03/08:30pm 7.4 4.7 5.4 87 0.9 NW 9 11 5 6 1017.6 1017.7 0.0
03/08:00pm 7.9 5.3 5.9 87 0.9 NNW 9 9 5 5 1017.8 1017.9 0.0
03/07:30pm 6.7 5.7 5.5 92 0.5 CALM 0 0 0 0 1017.6 1017.7 0.0
03/07:00pm 6.4 5.2 4.4 87 0.9 CALM 0 0 0 0 1017.3 1017.4 0.0
03/06:30pm 7.2 4.7 5.0 86 1.0 NE 7 9 4 5 1017.0 1017.1 0.0
03/06:00pm 8.1 5.8 4.7 79 1.5 ESE 6 7 3 4 1016.8 1016.9 0.0
03/05:30pm 9.4 8.2 4.8 73 2.1 CALM 0 0 0 0 1016.6 1016.7 0.0
03/05:00pm 11.6 10.5 5.3 65 2.9 CALM 0 0 0 0 1016.5 1016.6 0.0
03/04:30pm 12.2 9.8 5.4 63 3.2 SSW 7 11 4 6 1016.5 1016.6 0.0
03/04:00pm 13.1 10.4 5.8 61 3.5 S 9 13 5 7 1016.5 1016.6 0.0
03/03:30pm 13.1 11.4 6.0 62 3.4 W 4 11 2 6 1016.4 1016.5 0.0
03/03:00pm 11.3 8.6 5.4 67 2.7 W 9 13 5 7 1016.5 1016.6 0.0
03/02:30pm 12.8 9.9 6.4 65 3.1 WSW 11 17 6 9 1016.5 1016.6 0.0
03/02:00pm 11.6 9.6 7.1 74 2.2 W 7 11 4 6 1016.8 1016.9 0.0
03/01:34pm 11.0 8.5 6.7 75 2.1 WSW 9 13 5 7 1017.2 1017.3 0.0
03/01:30pm 10.9 8.0 6.3 73 2.2 W 11 13 6 7 1017.2 1017.3 0.0
03/01:00pm 11.3 9.7 8.2 81 1.5 ENE 6 11 3 6 1017.4 1017.5 0.0
03/12:30pm 10.2 9.0 9.4 95 0.4 ENE 6 9 3 5 1017.8 1017.9 0.0
03/12:00pm 8.4 6.6 7.8 96 0.3 ENE 7 9 4 5 1018.5 1018.6 0.0
03/11:30am 7.8 5.4 7.2 96 0.3 SE 9 11 5 6 1018.8 1018.9 0.0
03/11:21am 7.8 6.0 7.2 96 0.3 E 6 9 3 5 1018.9 1019.0 0.0
03/11:00am 7.5 5.1 6.9 96 0.3 ENE 9 13 5 7 1018.9 1019.0 0.0
03/10:30am 7.0 4.5 6.4 96 0.3 ENE 9 13 5 7 1019.1 1019.3 0.0
03/10:00am 6.3 4.0 5.7 96 0.3 ENE 7 11 4 6 1019.6 1019.7 0.0
03/09:30am 5.9 4.5 5.3 96 0.3 E 2 7 1 4 1019.6 1019.7 0.0
03/09:00am 5.6 3.7 5.0 96 0.3 NE 4 9 2 5 1019.4 1019.5 0.2
03/08:30am 5.7 2.9 5.1 96 0.3 E 9 11 5 6 1019.1 1019.3 0.0
03/08:00am 5.1 2.6 4.7 97 0.2 ENE 7 9 4 5 1019.1 1019.3 0.0
03/07:30am 4.4 1.4 4.0 97 0.2 ENE 9 11 5 6 1019.1 1019.3 0.0
03/07:00am 3.7 0.9 3.3 97 0.2 ENE 7 9 4 5 1019.0 1019.2 0.0
03/06:30am 3.2 -0.4 2.8 97 0.2 E 11 13 6 7 1018.5 1018.6 0.0
03/06:00am 2.3 -1.1 1.9 97 0.2 NNE 9 11 5 6 1018.2 1018.3 0.0
03/05:30am 2.4 -1.0 2.0 97 0.2 NE 9 9 5 5 1018.0 1018.1 0.0
03/05:00am 2.6 -0.7 2.2 97 0.2 NNE 9 9 5 5 1017.7 1017.8 0.0
03/04:30am 2.9 -0.1 2.3 96 0.2 NNE 7 9 4 5 1017.7 1017.8 0.0
03/04:00am 3.2 -0.1 2.6 96 0.2 NNE 9 9 5 5 1017.8 1017.9 0.0
03/03:30am 3.7 0.5 3.1 96 0.2 NNE 9 11 5 6 1018.0 1018.1 0.0
03/03:00am 3.4 0.2 2.8 96 0.2 NNE 9 9 5 5 1018.3 1018.4 0.0
03/02:30am 4.0 0.5 3.4 96 0.2 NE 11 11 6 6 1018.4 1018.5 0.0
03/02:00am 3.9 0.7 3.2 95 0.3 ENE 9 11 5 6 1018.6 1018.7 0.0
03/01:58am 3.9 0.7 3.2 95 0.3 ENE 9 11 5 6 1018.6 1018.7 0.0
03/01:30am 4.4 1.3 3.7 95 0.3 ENE 9 9 5 5 1018.8 1018.9 0.0
03/01:13am 4.6 1.6 3.9 95 0.3 NE 9 11 5 6 1018.9 1019.0 0.0
03/01:00am 5.0 2.0 4.3 95 0.3 N 9 11 5 6 1019.0 1019.2 0.0
03/12:30am 5.6 2.7 4.7 94 0.4 N 9 11 5 6 1019.1 1019.3 0.0
03/12:00am 6.2 3.5 5.5 95 0.3 NNW 9 11 5 6 1019.5 1019.6 0.0
 
Date/Time
EST
Temp
°C
App
Temp
°C
Dew
Point
°C
Rel
Hum
%
Delta-T
°C
Wind Press
QNH
hPa
Press
MSL
hPa
Rain since
9am
mm
Dir  Spd
km/h
Gust
km/h
Spd
kts
Gust
kts
02/11:30pm 6.3 3.6 5.6 95 0.3 NNW 9 13 5 7 1019.6 1019.7 0.0
02/11:00pm 5.8 2.6 4.9 94 0.4 NNW 11 15 6 8 1019.6 1019.7 0.0
02/10:30pm 6.2 3.0 5.3 94 0.4 NNW 11 13 6 7 1019.5 1019.6 0.0
02/10:00pm 6.2 3.0 5.2 93 0.4 NNW 11 13 6 7 1019.5 1019.6 0.0
02/09:30pm 6.9 3.9 5.8 93 0.5 NNW 11 15 6 8 1019.8 1019.9 0.0
02/09:00pm 7.4 4.4 6.2 92 0.5 NW 11 15 6 8 1019.8 1019.9 0.0
02/08:30pm 7.9 5.1 7.0 94 0.4 NNW 11 15 6 8 1019.8 1019.9 0.0
02/08:04pm 8.0 5.6 7.2 95 0.4 N 9 11 5 6 1019.8 1019.9 0.0
02/08:00pm 7.9 5.5 7.1 95 0.4 N 9 13 5 7 1019.8 1019.9 0.0
02/07:30pm 7.4 4.9 6.5 94 0.4 NNW 9 13 5 7 1019.6 1019.7 0.0
02/07:21pm 7.3 4.4 6.4 94 0.4 NNW 11 13 6 7 1019.6 1019.7 0.0
02/07:13pm 7.5 5.0 6.6 94 0.4 NNW 9 13 5 7 1019.6 1019.7 0.0
02/07:01pm 7.2 4.2 6.1 93 0.5 N 11 13 6 7 1019.4 1019.5 0.0
02/07:00pm 7.1 4.1 6.0 93 0.5 N 11 13 6 7 1019.4 1019.5 0.0
02/06:30pm 7.9 5.0 6.7 92 0.6 NNW 11 11 6 6 1019.0 1019.2 0.0
02/06:00pm 8.6 6.8 7.1 90 0.7 NW 6 7 3 4 1019.2 1019.4 0.0
02/05:30pm 8.7 5.8 6.7 87 0.9 WNW 11 11 6 6 1019.1 1019.3 0.0
02/05:29pm 8.8 6.4 6.8 87 0.9 WNW 9 11 5 6 1019.1 1019.3 0.0
02/05:00pm 10.1 6.4 7.9 86 1.1 W 17 24 9 13 1019.0 1019.2 0.0
02/04:30pm 9.9 5.8 7.7 86 1.1 W 19 26 10 14 1019.0 1019.2 0.0
02/04:00pm 9.9 6.6 8.0 88 0.9 WNW 15 19 8 10 1018.8 1018.9 0.0
02/03:30pm 10.1 5.9 8.4 89 0.8 W 20 26 11 14 1018.6 1018.7 0.0
02/03:00pm 10.0 5.4 8.3 89 0.8 W 22 28 12 15 1018.6 1018.7 0.0
02/02:30pm 10.9 7.5 9.0 88 1.0 WNW 17 19 9 10 1018.7 1018.8 0.0
02/02:00pm 10.8 8.1 8.9 88 0.9 W 13 17 7 9 1018.7 1018.8 0.0
02/01:30pm 10.5 7.8 8.9 90 0.8 W 13 17 7 9 1018.9 1019.0 0.0
02/01:00pm 10.2 7.2 9.1 93 0.5 W 15 20 8 11 1019.1 1019.3 0.0
02/12:49pm 10.0 6.5 8.9 93 0.5 W 17 20 9 11 1019.2 1019.4 0.0
02/12:36pm 10.0 6.5 8.9 93 0.5 W 17 20 9 11 1019.5 1019.6 0.0
02/12:30pm 10.3 7.3 9.4 94 0.5 WNW 15 19 8 10 1019.5 1019.6 0.0
02/12:28pm 10.1 7.1 9.2 94 0.5 WNW 15 19 8 10 1019.6 1019.7 0.0
02/12:00pm 10.2 7.2 9.4 95 0.4 W 15 17 8 9 1020.3 1020.4 0.0
02/11:30am 10.4 7.5 9.6 95 0.4 W 15 19 8 10 1020.7 1020.8 0.0
02/11:00am 10.7 7.5 9.9 95 0.4 WSW 17 20 9 11 1021.1 1021.2 0.0
02/10:30am 10.3 7.0 9.5 95 0.4 WSW 17 19 9 10 1021.1 1021.2 0.0
02/10:00am 10.1 6.4 9.3 95 0.4 WSW 19 26 10 14 1021.2 1021.3 0.0
02/09:30am 10.5 7.6 9.7 95 0.4 WSW 15 19 8 10 1021.1 1021.2 0.0
02/09:00am 10.4 7.9 9.6 95 0.4 WSW 13 15 7 8 1021.1 1021.2 12.2
02/08:30am 10.7 8.3 9.9 95 0.4 WSW 13 17 7 9 1020.9 1021.0 12.2
02/08:00am 10.5 7.6 9.7 95 0.4 SW 15 17 8 9 1020.9 1021.0 12.2
02/07:30am 10.6 7.4 9.8 95 0.4 SW 17 20 9 11 1020.8 1020.9 12.2
02/07:00am 11.2 8.9 10.4 95 0.4 WSW 13 15 7 8 1020.6 1020.7 12.2
02/06:55am 11.2 9.3 10.4 95 0.4 WSW 11 15 6 8 1020.7 1020.8 12.2
02/06:30am 11.7 9.9 10.9 95 0.4 SW 11 17 6 9 1020.2 1020.3 12.2
02/06:00am 12.0 10.7 11.2 95 0.4 WSW 9 11 5 6 1019.8 1019.9 12.2
02/05:30am 12.1 11.2 11.3 95 0.4 SW 7 9 4 5 1019.7 1019.8 12.2
02/05:00am 12.1 11.4 11.3 95 0.4 SSW 6 7 3 4 1019.7 1019.8 12.2
02/04:30am 12.0 11.1 11.2 95 0.4 SSW 7 7 4 4 1020.0 1020.1 12.2
02/04:00am 11.9 10.9 11.1 95 0.4 SW 7 7 4 4 1020.0 1020.1 12.2
02/03:30am 11.9 11.9 11.1 95 0.4 S 2 6 1 3 1020.4 1020.5 12.2
02/03:00am 11.9 11.9 11.1 95 0.4 ESE 2 6 1 3 1020.3 1020.4 12.2
02/02:34am 12.0 12.4 11.2 95 0.4 CALM 0 0 0 0 1020.5 1020.6 12.2
02/02:30am 12.0 12.4 11.2 95 0.4 CALM 0 0 0 0 1020.5 1020.6 12.2
02/02:00am 11.6 11.8 10.7 94 0.5 CALM 0 0 0 0 1020.8 1020.9 12.0
02/01:56am 11.8 12.1 10.9 94 0.5 CALM 0 0 0 0 1020.5 1020.6 12.0
02/01:30am 11.7 12.0 10.8 94 0.5 CALM 0 0 0 0 1020.5 1020.6 12.0
02/01:23am 11.7 12.0 10.8 94 0.5 CALM 0 0 0 0 1020.5 1020.6 12.0
02/01:00am 11.9 12.2 11.0 94 0.5 CALM 0 0 0 0 1020.7 1020.8 12.0
02/12:49am 11.9 12.2 11.0 94 0.5 CALM 0 0 0 0 1020.8 1020.9 11.8
02/12:30am 12.0 12.4 11.1 94 0.5 CALM 0 0 0 0 1020.8 1020.9 11.8
02/12:00am 12.1 12.5 11.2 94 0.5 CALM 0 0 0 0 1021.1 1021.2 11.6
 
Date/Time
EST
Temp
°C
App
Temp
°C
Dew
Point
°C
Rel
Hum
%
Delta-T
°C
Wind Press
QNH
hPa
Press
MSL
hPa
Rain since
9am
mm
Dir  Spd
km/h
Gust
km/h
Spd
kts
Gust
kts
01/11:30pm 12.1 11.2 11.2 94 0.5 ESE 7 7 4 4 1021.3 1021.4 11.4
01/11:00pm 12.2 12.6 11.3 94 0.5 CALM 0 0 0 0 1021.4 1021.5 11.2
01/10:30pm 12.2 11.5 11.3 94 0.5 ESE 6 7 3 4 1021.7 1021.8 11.0
01/10:00pm 12.2 10.9 11.3 94 0.5 ENE 9 11 5 6 1021.4 1021.5 11.0
01/09:30pm 12.2 10.9 11.3 94 0.5 E 9 11 5 6 1021.8 1021.9 11.0
01/09:05pm 12.4 11.2 11.5 94 0.5 E 9 11 5 6 1021.9 1022.0 10.6
01/09:00pm 12.4 11.2 11.5 94 0.5 E 9 11 5 6 1021.9 1022.0 10.6
01/08:40pm 12.4 11.7 11.5 94 0.5 SSE 6 7 3 4 1021.9 1022.0 10.2
01/08:30pm 12.4 11.5 11.5 94 0.5 SSE 7 9 4 5 1021.9 1022.0 10.2
01/08:00pm 12.3 11.0 11.4 94 0.5 ENE 9 11 5 6 1021.5 1021.6 10.0
01/07:42pm 12.3 11.4 11.4 94 0.5 ENE 7 9 4 5 1021.9 1022.0 9.8
01/07:30pm 12.3 11.6 11.4 94 0.5 ENE 6 9 3 5 1022.2 1022.3 9.6
01/07:19pm 12.3 12.7 11.4 94 0.5 CALM 0 0 0 0 1022.0 1022.1 9.2
01/07:00pm 12.3 11.0 11.4 94 0.5 E 9 13 5 7 1021.7 1021.8 9.0
01/06:30pm 12.3 10.3 11.4 94 0.5 E 13 17 7 9 1021.1 1021.2 8.8
01/06:14pm 12.3 9.9 11.4 94 0.5 ENE 15 20 8 11 1020.6 1020.7 8.6
01/06:00pm 12.4 10.0 11.5 94 0.5 ENE 15 19 8 10 1020.6 1020.7 8.6
01/05:48pm 12.4 10.0 11.5 94 0.5 E 15 19 8 10 1020.7 1020.8 8.2
01/05:30pm 12.5 10.9 11.6 94 0.5 E 11 13 6 7 1021.0 1021.1 8.0
01/05:13pm 12.6 10.7 11.7 94 0.5 E 13 17 7 9 1021.0 1021.1 8.0
01/05:00pm 12.8 10.9 11.9 94 0.5 E 13 17 7 9 1020.6 1020.7 7.8
01/04:39pm 13.0 11.9 12.1 94 0.5 E 9 11 5 6 1021.1 1021.2 7.8
01/04:30pm 13.0 11.9 12.1 94 0.5 E 9 11 5 6 1021.0 1021.1 7.4
01/04:28pm 12.9 11.8 12.0 94 0.5 E 9 11 5 6 1021.1 1021.2 7.4
01/04:02pm 13.0 11.9 11.9 93 0.6 E 9 11 5 6 1021.1 1021.2 6.8
01/04:00pm 13.0 11.9 11.9 93 0.6 E 9 11 5 6 1021.1 1021.2 6.8
01/03:37pm 13.1 12.0 12.0 93 0.6 E 9 11 5 6 1021.4 1021.5 6.2
01/03:30pm 13.1 12.0 12.0 93 0.6 E 9 11 5 6 1021.2 1021.3 6.0
01/03:25pm 13.1 12.0 12.0 93 0.6 E 9 11 5 6 1021.2 1021.3 5.8
01/03:16pm 13.1 11.6 12.0 93 0.6 E 11 13 6 7 1021.1 1021.2 5.8
01/03:09pm 13.0 11.5 11.9 93 0.6 E 11 13 6 7 1020.9 1021.0 5.6
01/03:00pm 13.2 12.5 12.1 93 0.6 E 7 11 4 6 1021.3 1021.4 5.4
01/02:34pm 13.3 11.9 12.2 93 0.6 ESE 11 13 6 7 1020.6 1020.7 5.4
01/02:30pm 13.5 12.2 12.4 93 0.6 ESE 11 13 6 7 1020.6 1020.7 5.4
01/02:20pm 13.2 12.1 12.1 93 0.6 ESE 9 11 5 6 1021.1 1021.2 5.2
01/02:17pm 13.2 12.1 12.1 93 0.6 ESE 9 11 5 6 1021.1 1021.2 5.2
01/02:16pm 13.2 12.1 12.1 93 0.6 ESE 9 11 5 6 1021.1 1021.2 5.2
01/02:00pm 13.3 12.3 12.2 93 0.6 ESE 9 11 5 6 1020.8 1020.9 5.0
01/01:40pm 13.1 12.4 12.0 93 0.6 S 7 7 4 4 1021.5 1021.6 4.6
01/01:30pm 13.2 12.5 12.1 93 0.6 SSE 7 9 4 5 1021.6 1021.7 4.4
01/01:00pm 12.7 12.0 11.3 91 0.7 ESE 6 9 3 5 1021.5 1021.6 3.4
01/12:30pm 13.0 12.0 11.1 88 1.0 SSW 7 9 4 5 1022.0 1022.1 1.0
01/12:20pm 13.2 11.8 10.9 86 1.2 S 9 11 5 6 1021.8 1021.9 0.4
01/12:00pm 13.9 12.7 10.3 79 1.9 SE 7 9 4 5 1022.1 1022.2 0.2
01/11:30am 13.9 11.9 10.3 79 1.9 E 11 13 6 7 1022.1 1022.2 0.2
01/11:00am 14.2 12.4 9.6 74 2.4 E 9 13 5 7 1022.4 1022.5 0.0
01/10:30am 14.5 11.4 8.9 69 2.9 ENE 15 19 8 10 1022.7 1022.8 0.0
01/10:00am 14.3 10.8 8.9 70 2.8 E 17 19 9 10 1022.8 1022.9 0.0
01/09:30am 13.6 11.0 9.3 75 2.2 E 13 17 7 9 1022.8 1022.8 0.0
01/09:00am 13.0 10.4 9.3 78 1.9 E 13 17 7 9 1022.9 1022.9 0.0
01/08:30am 12.7 9.5 8.6 76 2.1 ESE 15 19 8 10 1023.0 1023.1 0.0
01/08:00am 11.7 8.8 8.2 79 1.7 E 13 19 7 10 1022.7 1022.7 0.0
01/07:30am 11.0 7.7 7.9 81 1.5 E 15 17 8 9 1022.6 1022.6 0.0
01/07:00am 10.7 7.3 7.8 82 1.4 ESE 15 19 8 10 1022.3 1022.3 0.0
01/06:30am 10.3 6.9 7.5 83 1.4 E 15 17 8 9 1022.0 1022.0 0.0
01/06:00am 10.2 7.2 7.6 84 1.3 ESE 13 17 7 9 1022.1 1022.1 0.0
01/05:30am 10.3 7.3 7.5 83 1.4 SE 13 17 7 9 1022.0 1022.0 0.0
01/05:00am 9.9 6.8 7.2 83 1.3 SE 13 15 7 8 1021.6 1021.6 0.0
01/04:30am 10.2 8.9 7.8 85 1.2 S 4 9 2 5 1021.9 1021.9 0.0
01/04:00am 10.5 7.5 7.7 83 1.4 ENE 13 17 7 9 1021.5 1021.5 0.0
01/03:30am 10.6 6.5 7.8 83 1.4 ENE 19 24 10 13 1021.4 1021.4 0.0
01/03:00am 10.2 6.4 7.4 83 1.3 E 17 19 9 10 1021.6 1021.6 0.0
01/02:30am 10.5 7.1 7.7 83 1.4 E 15 19 8 10 1021.9 1021.9 0.0
01/02:00am 10.4 7.8 7.6 83 1.4 E 11 13 6 7 1022.1 1022.1 0.0
01/01:30am 10.2 7.9 7.4 83 1.4 ESE 9 15 5 8 1022.5 1022.5 0.0
01/01:00am 10.2 7.5 7.3 82 1.4 ESE 11 13 6 7 1022.1 1022.1 0.0
01/12:30am 10.6 8.4 7.7 82 1.4 ESE 9 13 5 7 1022.5 1022.5 0.0
01/12:00am 11.0 8.8 7.9 81 1.5 ESE 9 13 5 7 1022.9 1022.9 0.0
 
Date/Time
EST
Temp
°C
App
Temp
°C
Dew
Point
°C
Rel
Hum
%
Delta-T
°C
Wind Press
QNH
hPa
Press
MSL
hPa
Rain since
9am
mm
Dir  Spd
km/h
Gust
km/h
Spd
kts
Gust
kts
30/11:30pm 11.5 9.4 8.2 80 1.6 ESE 9 11 5 6 1022.9 1022.9 0.0
30/11:00pm 11.2 9.0 7.7 79 1.7 SE 9 11 5 6 1023.3 1023.4 0.0
30/10:30pm 12.2 10.2 8.5 78 1.9 ESE 9 11 5 6 1023.1 1023.2 0.0
30/10:00pm 12.7 11.3 8.8 77 2.0 ENE 6 9 3 5 1023.0 1023.1 0.0
30/09:30pm 12.9 10.5 8.8 76 2.1 E 11 13 6 7 1023.1 1023.2 0.0
30/09:00pm 13.5 11.3 9.2 75 2.2 NE 11 13 6 7 1023.0 1023.1 0.0

Other formats

Comma delimited format used in spreadsheet applications
http://www.bom.gov.au/fwo/IDN60801/IDN60801.95527.axf

JavaScript Object Notation format (JSON) in row-major order
http://www.bom.gov.au/fwo/IDN60801/IDN60801.95527.json

Data quality

Most of these data are generated automatically and are frequently updated. Quality checks on data are not normally performed. It is possible for incorrect values to appear. Refer to information at About Latest Weather Observations and please check the disclaimer before using these data.